createdAt,value
2023-01-01T00:00:50.157Z,94.80
2023-01-01T00:03:17.285Z,94.80
2023-01-01T00:05:44.186Z,94.80
2023-01-01T00:08:11.126Z,95.00
2023-01-01T00:10:38.236Z,94.80
2023-01-01T00:13:05.171Z,95.00
2023-01-01T00:15:32.292Z,94.60
2023-01-01T00:17:59.658Z,94.30
2023-01-01T00:20:30.158Z,94.30
2023-01-01T00:22:58.468Z,94.30
2023-01-01T00:25:25.328Z,94.30
2023-01-01T00:27:52.493Z,94.30
2023-01-01T00:30:19.419Z,94.10
2023-01-01T00:32:55.566Z,94.30
2023-01-01T00:35:27.360Z,94.60
2023-01-01T00:37:55.374Z,94.40
2023-01-01T00:40:22.895Z,94.60
2023-01-01T00:42:49.809Z,94.60
2023-01-01T00:45:21.348Z,94.40
2023-01-01T00:47:49.991Z,94.60
2023-01-01T00:50:16.997Z,94.60
2023-01-01T00:52:44.185Z,94.40
2023-01-01T00:55:11.644Z,94.70
2023-01-01T00:57:38.524Z,94.50
2023-01-01T01:00:06.366Z,94.80
2023-01-01T01:02:33.408Z,95.00
2023-01-01T01:05:01.507Z,94.80
2023-01-01T01:07:28.345Z,94.70
2023-01-01T01:09:55.298Z,94.80
2023-01-01T01:12:22.200Z,95.20
2023-01-01T01:14:49.057Z,97.00
2023-01-01T01:17:15.950Z,99.90
2023-01-01T01:19:42.780Z,99.90
2023-01-01T01:22:09.712Z,99.90
2023-01-01T01:24:36.499Z,99.70
2023-01-01T01:27:03.385Z,99.40
2023-01-01T01:29:30.240Z,98.60
2023-01-01T01:31:57.064Z,98.00
2023-01-01T01:34:27.794Z,97.90
2023-01-01T01:36:55.500Z,97.50
2023-01-01T01:39:22.568Z,97.50
2023-01-01T01:41:49.543Z,97.40
2023-01-01T01:44:44.228Z,96.70
2023-01-01T01:47:29.777Z,96.10
2023-01-01T01:50:13.557Z,96.00
2023-01-01T01:52:46.864Z,95.80
2023-01-01T01:55:14.260Z,96.00
2023-01-01T01:57:42.087Z,95.70
2023-01-01T02:00:11.655Z,95.40
2023-01-01T02:02:46.610Z,95.40
2023-01-01T02:05:14.098Z,95.10
2023-01-01T02:07:41.764Z,94.50
2023-01-01T02:10:08.933Z,94.30
2023-01-01T02:12:35.765Z,94.50
2023-01-01T02:15:02.765Z,94.90
2023-01-01T02:17:39.877Z,94.50
2023-01-01T02:20:19.098Z,94.30
2023-01-01T02:22:57.909Z,94.00
2023-01-01T02:25:51.625Z,94.30
2023-01-01T02:28:33.586Z,93.90
2023-01-01T02:31:02.079Z,93.90
2023-01-01T02:33:29.759Z,94.00
2023-01-01T02:36:03.536Z,94.00
2023-01-01T02:38:36.659Z,94.00
2023-01-01T02:41:08.018Z,93.70
2023-01-01T02:43:34.865Z,93.80
2023-01-01T02:46:06.925Z,93.60
2023-01-01T02:48:50.357Z,93.60
2023-01-01T02:51:23.218Z,93.60
2023-01-01T02:53:59.726Z,93.90
2023-01-01T02:57:07.947Z,93.80
2023-01-01T02:59:52.951Z,93.30
2023-01-01T03:02:25.749Z,93.40
2023-01-01T03:04:55.568Z,93.00
2023-01-01T03:07:49.480Z,92.90
2023-01-01T03:10:25.855Z,93.00
2023-01-01T03:13:11.435Z,93.00
2023-01-01T03:16:10.594Z,93.00
2023-01-01T03:18:42.190Z,92.50
2023-01-01T03:23:49.857Z,92.50
2023-01-01T03:26:19.392Z,92.30
2023-01-01T03:28:56.012Z,92.60
2023-01-01T03:31:26.313Z,92.60
2023-01-01T03:34:00.279Z,92.10
2023-01-01T03:36:37.633Z,92.50
2023-01-01T03:39:13.357Z,92.40
2023-01-01T03:42:11.147Z,92.50
2023-01-01T03:44:56.520Z,92.70
2023-01-01T03:47:23.909Z,92.20
2023-01-01T03:49:50.962Z,92.30
2023-01-01T03:52:29.515Z,92.20
2023-01-01T03:55:12.324Z,92.10
2023-01-01T03:57:41.804Z,91.80
2023-01-01T04:00:17.093Z,92.00
2023-01-01T04:02:57.217Z,92.30
2023-01-01T04:05:25.162Z,92.50
2023-01-01T04:07:53.659Z,92.10
2023-01-01T04:10:21.576Z,92.10
2023-01-01T04:12:52.024Z,92.00
2023-01-01T04:15:21.535Z,92.10
2023-01-01T04:17:48.388Z,91.80
2023-01-01T04:20:15.267Z,91.90
2023-01-01T04:22:42.042Z,92.20
2023-01-01T04:25:09.836Z,92.40
2023-01-01T04:27:37.042Z,92.10
2023-01-01T04:30:06.123Z,92.10
2023-01-01T04:32:32.989Z,92.40
2023-01-01T04:35:00.118Z,92.20
2023-01-01T04:37:27.259Z,92.20
2023-01-01T04:39:54.135Z,92.80
2023-01-01T04:42:20.962Z,92.50
2023-01-01T04:44:47.727Z,92.30
2023-01-01T04:47:14.595Z,92.40
2023-01-01T04:49:41.553Z,92.60
2023-01-01T04:52:08.456Z,92.70
2023-01-01T04:54:35.358Z,92.60
2023-01-01T04:57:02.196Z,92.90
2023-01-01T04:59:30.885Z,92.60
2023-01-01T05:01:58.540Z,93.00
2023-01-01T05:04:25.432Z,93.20
2023-01-01T05:06:52.173Z,93.20
2023-01-01T05:09:18.989Z,93.10
2023-01-01T05:11:45.768Z,93.30
2023-01-01T05:14:12.644Z,93.30
2023-01-01T05:16:40.441Z,93.20
2023-01-01T05:19:09.065Z,93.40
2023-01-01T05:21:38.437Z,93.40
2023-01-01T05:24:10.340Z,93.30
2023-01-01T05:26:39.364Z,93.30
2023-01-01T05:29:11.879Z,93.60
2023-01-01T05:31:42.856Z,93.50
2023-01-01T05:34:10.058Z,93.50
2023-01-01T05:36:38.467Z,93.90
2023-01-01T05:39:07.457Z,93.80
2023-01-01T05:41:36.712Z,93.90
2023-01-01T05:44:05.877Z,93.60
2023-01-01T05:46:33.193Z,93.60
2023-01-01T05:48:59.998Z,93.60
2023-01-01T05:51:28.700Z,93.60
2023-01-01T05:53:56.394Z,93.80
2023-01-01T05:56:23.765Z,93.80
2023-01-01T05:58:52.409Z,94.10
2023-01-01T06:01:30.564Z,94.60
2023-01-01T06:03:58.913Z,94.40
2023-01-01T06:06:29.048Z,94.40
2023-01-01T06:09:01.573Z,94.60
2023-01-01T06:11:29.718Z,94.60
2023-01-01T06:13:59.022Z,94.90
2023-01-01T06:16:27.010Z,94.80
2023-01-01T06:18:53.837Z,95.00
2023-01-01T06:21:22.963Z,94.50
2023-01-01T06:23:50.168Z,94.60
2023-01-01T06:26:19.884Z,94.90
2023-01-01T06:28:47.448Z,95.10
2023-01-01T06:31:17.957Z,95.50
2023-01-01T06:33:45.443Z,96.30
2023-01-01T06:36:14.437Z,95.80
2023-01-01T06:38:43.598Z,96.40
2023-01-01T06:41:16.297Z,96.60
2023-01-01T06:43:43.780Z,96.80
2023-01-01T06:46:20.688Z,96.70
2023-01-01T06:48:49.828Z,96.40
2023-01-01T06:51:19.600Z,96.70
2023-01-01T06:53:47.433Z,96.90
2023-01-01T06:56:14.427Z,96.60
2023-01-01T06:58:41.214Z,96.60
2023-01-01T07:01:16.744Z,96.70
2023-01-01T07:03:44.662Z,97.10
2023-01-01T07:06:11.747Z,97.20
2023-01-01T07:08:38.610Z,97.30
2023-01-01T07:11:05.491Z,97.40
2023-01-01T07:13:32.479Z,97.70
2023-01-01T07:15:59.349Z,97.50
2023-01-01T07:18:26.581Z,96.90
2023-01-01T07:20:56.660Z,97.60
2023-01-01T07:23:23.791Z,97.20
2023-01-01T07:25:51.686Z,97.00
2023-01-01T07:28:19.232Z,96.90
2023-01-01T07:30:46.148Z,97.10
2023-01-01T07:33:15.717Z,96.80
2023-01-01T07:35:44.848Z,96.50
2023-01-01T07:38:11.773Z,96.60
2023-01-01T07:40:38.564Z,97.50
2023-01-01T07:43:05.363Z,97.60
2023-01-01T07:45:33.171Z,97.70
2023-01-01T07:48:00.592Z,98.30
2023-01-01T07:50:29.960Z,98.50
2023-01-01T07:52:57.322Z,98.50
2023-01-01T07:55:24.504Z,99.80
2023-01-01T07:57:51.385Z,99.90
2023-01-01T08:00:21.776Z,99.90
2023-01-01T08:02:49.112Z,99.90
2023-01-01T08:05:21.154Z,99.90
2023-01-01T08:07:51.645Z,99.90
2023-01-01T08:10:20.556Z,99.90
2023-01-01T08:12:47.728Z,99.90
2023-01-01T08:15:15.334Z,99.90
2023-01-01T08:17:46.412Z,99.90
2023-01-01T08:20:13.443Z,99.90
2023-01-01T08:22:40.414Z,99.90
2023-01-01T08:25:07.585Z,99.90
2023-01-01T08:27:34.354Z,99.90
2023-01-01T08:30:01.171Z,99.90
2023-01-01T08:32:27.980Z,99.90
2023-01-01T08:34:54.764Z,99.90
2023-01-01T08:37:22.639Z,99.90
2023-01-01T08:39:51.132Z,99.90
2023-01-01T08:42:18.270Z,99.90
2023-01-01T08:44:45.026Z,99.90
2023-01-01T08:47:26.329Z,99.90
2023-01-01T08:49:53.406Z,99.90
2023-01-01T08:52:21.467Z,99.90
2023-01-01T08:54:48.441Z,99.90
2023-01-01T08:57:19.148Z,99.90
2023-01-01T08:59:47.916Z,99.90
2023-01-01T09:02:14.831Z,99.90
2023-01-01T09:04:41.828Z,99.90
2023-01-01T09:07:08.739Z,99.90
2023-01-01T09:09:44.196Z,99.90
2023-01-01T09:12:14.940Z,99.90
2023-01-01T09:14:42.560Z,99.90
2023-01-01T09:17:09.856Z,99.90
2023-01-01T09:19:36.785Z,99.90
2023-01-01T09:22:03.725Z,99.90
2023-01-01T09:24:31.904Z,99.90
2023-01-01T10:19:43.924Z,99.90
2023-01-01T10:22:20.592Z,99.90
2023-01-01T10:25:01.817Z,99.90
2023-01-01T10:27:37.484Z,99.90
2023-01-01T10:30:14.979Z,99.90
2023-01-01T10:32:43.450Z,99.90
2023-01-01T10:35:15.664Z,99.90
2023-01-01T10:40:40.648Z,99.90
2023-01-01T10:46:36.013Z,99.90
2023-01-01T10:52:15.190Z,99.90
2023-01-01T10:54:44.836Z,99.90
2023-01-01T10:57:38.749Z,99.90
2023-01-01T11:00:28.019Z,99.90
2023-01-01T11:03:21.549Z,99.90
2023-01-01T11:06:03.731Z,99.90
2023-01-01T11:08:35.113Z,99.90
2023-01-01T11:11:03.124Z,99.90
2023-01-01T11:13:31.283Z,99.90
2023-01-01T11:15:59.028Z,99.90
2023-01-01T11:18:35.932Z,99.90
2023-01-01T11:21:05.709Z,99.90
2023-01-01T11:23:39.932Z,99.90
2023-01-01T11:26:12.512Z,99.90
2023-01-01T11:28:40.625Z,99.90
2023-01-01T11:31:10.337Z,99.90
2023-01-01T11:33:50.737Z,99.90
2023-01-01T11:36:28.530Z,99.90
2023-01-01T11:39:28.930Z,99.90
2023-01-01T11:41:57.581Z,99.90
2023-01-01T11:44:47.610Z,99.90
2023-01-01T11:47:37.432Z,99.90
2023-01-01T11:50:23.301Z,99.90
2023-01-01T11:52:51.836Z,99.90
2023-01-01T11:55:29.535Z,99.90
2023-01-01T11:58:19.584Z,99.90
2023-01-01T12:00:49.878Z,99.90
2023-01-01T12:03:34.125Z,99.90
2023-01-01T12:06:27.833Z,99.90
2023-01-01T12:08:57.761Z,99.90
2023-01-01T12:11:34.997Z,99.90
2023-01-01T12:14:22.480Z,99.90
2023-01-01T12:17:07.334Z,99.90
2023-01-01T12:19:40.108Z,99.90
2023-01-01T12:22:17.399Z,99.90
2023-01-01T12:24:46.193Z,99.90
2023-01-01T12:27:36.358Z,99.90
2023-01-01T12:30:21.039Z,99.90
2023-01-01T12:33:18.642Z,99.90
2023-01-01T12:36:22.546Z,99.90
2023-01-01T12:38:58.432Z,99.90
2023-01-01T12:41:31.137Z,99.90
2023-01-01T12:44:16.266Z,99.90
2023-01-01T12:47:20.747Z,99.90
2023-01-01T12:49:54.658Z,99.90
2023-01-01T12:53:03.144Z,99.90
2023-01-01T12:55:58.882Z,99.90
2023-01-01T12:58:36.172Z,99.90
2023-01-01T13:01:21.003Z,99.90
2023-01-01T13:04:06.034Z,99.90
2023-01-01T13:06:48.541Z,99.90
2023-01-01T13:09:27.817Z,99.90
2023-01-01T13:12:07.545Z,99.90
2023-01-01T13:14:42.204Z,99.90
2023-01-01T13:17:21.439Z,99.90
2023-01-01T13:20:00.268Z,99.90
2023-01-01T13:22:27.065Z,99.90
2023-01-01T13:25:18.250Z,99.90
2023-01-01T13:27:57.663Z,99.90
2023-01-01T13:30:54.024Z,99.90
2023-01-01T13:33:26.009Z,99.90
2023-01-01T13:36:09.015Z,99.90
2023-01-01T13:38:55.300Z,99.90
2023-01-01T13:41:44.559Z,99.90
2023-01-01T13:44:24.083Z,99.90
2023-01-01T13:47:11.092Z,99.90
2023-01-01T13:49:49.173Z,99.90
2023-01-01T13:52:34.264Z,99.90
2023-01-01T13:55:34.871Z,99.90
2023-01-01T13:58:25.181Z,99.90
2023-01-01T14:01:43.049Z,99.90
2023-01-01T14:04:26.499Z,99.90
2023-01-01T14:06:58.609Z,99.90
2023-01-01T14:09:25.720Z,99.90
2023-01-01T14:11:52.749Z,99.90
2023-01-01T14:14:29.540Z,99.90
2023-01-01T14:17:02.141Z,99.90
2023-01-01T14:19:29.876Z,99.90
2023-01-01T14:21:57.263Z,99.90
2023-01-01T14:24:25.398Z,99.90
2023-01-01T14:30:21.399Z,99.90
2023-01-01T14:32:57.267Z,99.90
2023-01-01T14:35:24.315Z,99.90
2023-01-01T14:37:52.051Z,99.90
2023-01-01T14:40:30.391Z,99.90
2023-01-01T14:43:10.241Z,99.90
2023-01-01T14:45:38.927Z,99.90
2023-01-01T14:48:17.059Z,99.90
2023-01-01T14:50:51.718Z,99.90
2023-01-01T14:53:24.960Z,99.90
2023-01-01T14:56:54.795Z,99.90
2023-01-01T14:59:33.352Z,99.90
2023-01-01T15:02:15.662Z,99.90
2023-01-01T15:04:43.293Z,99.90
2023-01-01T15:07:25.018Z,99.90
2023-01-01T15:09:54.007Z,99.90
2023-01-01T15:12:21.717Z,99.90
2023-01-01T15:14:50.724Z,99.90
2023-01-01T15:17:19.982Z,99.90
2023-01-01T15:20:01.251Z,99.90
2023-01-01T15:22:31.370Z,99.90
2023-01-01T15:25:00.110Z,99.90
2023-01-01T15:27:37.076Z,99.90
2023-01-01T15:30:13.513Z,99.90
2023-01-01T15:32:41.064Z,99.90
2023-01-01T15:35:32.143Z,99.90
2023-01-01T15:38:14.858Z,99.90
2023-01-01T15:40:51.054Z,99.90
2023-01-01T15:43:25.509Z,99.90
2023-01-01T15:46:10.807Z,99.90
2023-01-01T15:48:46.840Z,99.90
2023-01-01T15:51:24.693Z,99.90
2023-01-01T15:54:01.670Z,99.90
2023-01-01T15:56:34.054Z,99.90
2023-01-01T15:59:09.772Z,99.90
2023-01-01T16:01:40.556Z,99.90
2023-01-01T16:04:28.717Z,99.90
2023-01-01T16:06:58.290Z,99.90
2023-01-01T16:09:25.643Z,99.90
2023-01-01T16:11:54.364Z,99.90
2023-01-01T16:14:22.177Z,99.90
2023-01-01T16:16:57.254Z,99.90
2023-01-01T16:19:25.159Z,99.90
2023-01-01T16:21:51.963Z,99.90
2023-01-01T16:24:20.088Z,99.90
2023-01-01T16:26:47.722Z,99.90
2023-01-01T16:29:14.786Z,99.90
2023-01-01T16:31:42.431Z,99.90
2023-01-01T16:34:14.201Z,99.90
2023-01-01T16:36:41.673Z,99.90
2023-01-01T16:39:08.636Z,99.90
2023-01-01T16:41:35.751Z,99.90
2023-01-01T16:44:02.658Z,99.90
2023-01-01T16:46:29.581Z,99.90
2023-01-01T16:48:56.540Z,99.90
2023-01-01T16:51:27.039Z,99.90
2023-01-01T16:53:54.341Z,99.90
2023-01-01T16:56:21.683Z,99.90
2023-01-01T16:58:51.335Z,99.90
2023-01-01T17:01:20.852Z,99.90
2023-01-01T17:03:47.887Z,99.90
2023-01-01T17:06:14.841Z,99.90
2023-01-01T17:08:42.867Z,99.90
2023-01-01T17:11:14.155Z,99.90
2023-01-01T17:13:45.855Z,99.90
2023-01-01T17:16:15.555Z,99.90
2023-01-01T17:19:17.176Z,99.90
2023-01-01T17:21:46.024Z,99.90
2023-01-01T17:24:45.968Z,99.90
2023-01-01T17:27:11.152Z,99.90
2023-01-01T17:29:38.221Z,99.90
2023-01-01T17:32:05.380Z,99.90
2023-01-01T17:34:32.184Z,99.90
2023-01-01T17:37:03.253Z,99.90
2023-01-01T17:39:30.309Z,99.90
2023-01-01T17:41:58.237Z,99.90
2023-01-01T17:44:26.530Z,99.90
2023-01-01T17:46:55.283Z,99.90
2023-01-01T17:49:22.159Z,99.90
2023-01-01T17:51:49.097Z,99.90
2023-01-01T17:54:16.569Z,99.90
2023-01-01T17:59:58.359Z,99.90
2023-01-01T18:02:26.420Z,99.90
2023-01-01T18:04:53.986Z,99.90
2023-01-01T18:07:20.975Z,99.90
2023-01-01T18:09:47.823Z,99.90
2023-01-01T18:12:14.641Z,99.90
2023-01-01T18:14:41.678Z,99.90
2023-01-01T18:17:08.841Z,99.90
2023-01-01T18:19:37.340Z,99.90
2023-01-01T18:22:04.214Z,99.90
2023-01-01T18:24:31.169Z,99.90
2023-01-01T18:26:58.019Z,99.90
2023-01-01T18:29:25.017Z,99.90
2023-01-01T18:31:52.319Z,99.90
2023-01-01T18:34:19.296Z,99.90
2023-01-01T18:36:49.521Z,99.90
2023-01-01T18:39:35.695Z,99.90
2023-01-01T18:42:34.992Z,99.90
2023-01-01T18:45:19.349Z,99.90
2023-01-01T18:47:49.804Z,99.90
2023-01-01T18:50:25.448Z,99.90
2023-01-01T18:52:59.598Z,99.90
2023-01-01T18:55:28.138Z,99.90
2023-01-01T19:01:00.493Z,99.90
2023-01-01T19:03:36.037Z,99.90
2023-01-01T19:06:30.552Z,99.90
2023-01-01T19:09:13.841Z,99.90
2023-01-01T19:11:40.677Z,99.90
2023-01-01T19:14:21.606Z,99.90
2023-01-01T19:16:51.859Z,99.90
2023-01-01T19:19:23.455Z,99.90
2023-01-01T19:21:54.259Z,99.90
2023-01-01T19:24:24.816Z,99.90
2023-01-01T19:27:15.448Z,99.90
2023-01-01T19:32:52.944Z,99.90
2023-01-01T19:35:19.845Z,99.90
2023-01-01T19:37:46.695Z,99.90
2023-01-01T19:40:13.674Z,99.90
2023-01-01T19:42:40.688Z,99.90
2023-01-01T19:45:08.568Z,99.90
2023-01-01T19:47:38.308Z,99.90
2023-01-01T19:50:05.544Z,99.90
2023-01-01T19:52:32.506Z,99.90
2023-01-01T19:55:00.380Z,99.90
2023-01-01T19:57:27.199Z,99.90
2023-01-01T19:59:54.050Z,99.90
2023-01-01T20:02:45.878Z,99.90
2023-01-01T20:05:09.840Z,99.90
2023-01-01T20:07:36.708Z,99.90
2023-01-01T20:10:06.596Z,99.90
2023-01-01T20:15:16.932Z,99.90
2023-01-01T20:17:43.896Z,99.90
2023-01-01T20:20:13.016Z,99.90
2023-01-01T20:22:41.119Z,99.90
2023-01-01T20:25:11.045Z,99.90
2023-01-01T20:27:58.491Z,99.90
2023-01-01T20:30:29.191Z,99.90
2023-01-01T20:33:01.387Z,99.90
2023-01-01T20:38:27.516Z,99.90
2023-01-01T20:40:54.957Z,99.90
2023-01-01T20:43:22.533Z,99.90
2023-01-01T20:45:50.046Z,99.90
2023-01-01T20:48:20.234Z,99.90
2023-01-01T20:50:53.916Z,99.90
2023-01-01T20:53:21.830Z,99.90
2023-01-01T20:55:50.221Z,99.90
2023-01-01T20:58:21.677Z,99.90
2023-01-01T21:00:49.303Z,99.90
2023-01-01T21:11:12.962Z,99.90
2023-01-01T21:13:49.216Z,99.90
2023-01-01T21:16:41.271Z,99.90
2023-01-01T21:19:13.839Z,99.90
2023-01-01T21:21:52.712Z,99.90
2023-01-01T21:24:51.815Z,99.90
2023-01-01T21:50:26.429Z,99.90
2023-01-01T21:53:01.624Z,99.90
2023-01-01T21:55:48.907Z,99.90
2023-01-01T21:58:36.631Z,99.90
2023-01-01T22:01:30.712Z,99.90
2023-01-01T22:04:00.354Z,99.90
2023-01-01T22:06:51.616Z,99.90
2023-01-01T22:09:31.798Z,99.90
2023-01-01T22:12:14.024Z,99.90
2023-01-01T22:14:46.183Z,99.90
2023-01-01T22:17:22.543Z,99.90
2023-01-01T22:19:50.408Z,99.90
2023-01-01T22:22:22.832Z,99.90
2023-01-01T22:24:56.518Z,99.90
2023-01-01T22:27:37.260Z,99.90
2023-01-01T22:30:19.382Z,99.90
2023-01-01T22:32:54.191Z,99.90
2023-01-01T22:35:26.034Z,99.90
2023-01-01T22:37:56.050Z,99.90
2023-01-01T22:40:29.207Z,99.90
2023-01-01T22:42:57.138Z,99.90
2023-01-01T22:45:26.796Z,99.90
2023-01-01T22:47:53.715Z,99.90
2023-01-01T22:50:24.318Z,99.90
2023-01-01T22:52:51.339Z,99.90
2023-01-01T22:55:18.540Z,99.90
2023-01-01T22:57:45.504Z,99.90
2023-01-01T23:00:14.399Z,99.90
2023-01-01T23:02:41.227Z,99.90
2023-01-01T23:05:08.115Z,99.90
2023-01-01T23:07:41.509Z,99.90
2023-01-01T23:10:10.990Z,99.90
2023-01-01T23:12:37.827Z,99.90
2023-01-01T23:15:23.680Z,99.90
2023-01-01T23:17:50.560Z,99.90
2023-01-01T23:20:17.656Z,99.90
2023-01-01T23:22:49.636Z,99.90
2023-01-01T23:25:19.507Z,99.90
2023-01-01T23:27:47.548Z,99.90
2023-01-01T23:30:14.962Z,99.90
2023-01-01T23:32:42.747Z,99.90
2023-01-01T23:35:10.889Z,99.90
2023-01-01T23:37:38.555Z,99.90
2023-01-01T23:40:05.870Z,99.90
2023-01-01T23:42:32.740Z,99.90
2023-01-01T23:44:59.601Z,99.90
2023-01-01T23:47:26.546Z,99.90
2023-01-01T23:49:53.416Z,99.90
2023-01-01T23:52:20.287Z,99.90
2023-01-01T23:54:47.096Z,99.90
2023-01-01T23:57:14.229Z,99.90
2023-01-01T23:59:41.042Z,99.90
